Time;durP1;ratioP1;P1;durP2;ratioP2;P2;SDS_P1;SDS_P2;PMS_P1;PMS_P2;Temp;Humidity;BMP_temperature;BMP_pressure;BME280_temperature;BME280_humidity;BME280_pressure;Samples;Min_cycle;Max_cycle;Signal;HPM_P1;HPM_P2
2023/11/07 00:00:52;;;;;;;;;;;;;;;-144.99;100.00;52594.84;5095666;28;20442;-70
2023/11/07 00:03:18;;;;;;;;;;;;;;;-144.99;100.00;52568.34;5106149;28;20055;-69
2023/11/07 00:05:45;;;;;;;;;;;;;;;-144.99;100.00;52523.50;5095934;28;20419;-69
2023/11/07 00:08:11;;;;;;;;;;;;;;;-144.99;100.00;52529.63;5096277;28;20019;-67
2023/11/07 00:10:37;;;;;;;;;;;;;;;-144.99;100.00;52517.41;5095299;28;19923;-69
2023/11/07 00:13:04;;;;;;;;;;;;;;;-144.99;100.00;52560.19;5091240;28;19947;-69
2023/11/07 00:15:32;;;;;;;;;;;;;;;-144.99;100.00;52562.25;5094511;28;19928;-68
2023/11/07 00:17:58;;;;;;;;;;;;;;;-144.99;100.00;52566.31;5093874;28;20508;-67
2023/11/07 00:22:52;;;;;;;;;;;;;;;-144.99;100.00;52554.09;5087434;28;20518;-65
2023/11/07 00:25:19;;;;;;;;;;;;;;;-144.99;100.00;52566.31;5082603;28;20098;-64
2023/11/07 00:27:45;;;;;;;;;;;;;;;-144.99;100.00;52513.31;5078795;28;19978;-63
2023/11/07 00:30:12;;;;;;;;;;;;;;;-144.99;100.00;52560.19;5087299;28;19976;-62
2023/11/07 00:32:40;;;;;;;;;;;;;;;-144.99;100.00;52515.34;5078912;28;19928;-62
2023/11/07 00:35:07;;;;;;;;;;;;;;;-144.99;100.00;52586.69;5083553;28;20360;-62
2023/11/07 00:37:34;;;;;;;;;;;;;;;-144.99;100.00;52570.38;5088090;28;19997;-62
2023/11/07 00:40:01;;;;;;;;;;;;;;;-144.99;100.00;52570.38;5091651;28;19998;-62
2023/11/07 00:42:27;;;;;;;;;;;;;;;-144.99;100.00;52545.94;5087399;28;20598;-62
2023/11/07 00:44:54;;;;;;;;;;;;;;;-144.99;100.00;52529.63;5086234;28;20140;-63
2023/11/07 00:47:20;;;;;;;;;;;;;;;-144.99;100.00;52537.78;5082127;28;20340;-63
2023/11/07 00:49:48;;;;;;;;;;;;;;;-144.99;100.00;52550.00;5086979;28;20524;-63
2023/11/07 00:52:15;;;;;;;;;;;;;;;-144.99;100.00;52529.63;5083168;28;19943;-63
2023/11/07 00:54:41;;;;;;;;;;;;;;;-144.99;100.00;52507.19;5079286;28;20068;-62
2023/11/07 00:57:09;;;;;;;;;;;;;;;-144.99;100.00;52568.34;5061785;28;19924;-61
2023/11/07 00:59:35;;;;;;;;;;;;;;;-144.99;100.00;52566.31;5064252;28;20014;-65
2023/11/07 01:02:03;;;;;;;;;;;;;;;-144.99;100.00;52552.03;5078682;28;19935;-64
2023/11/07 01:04:29;;;;;;;;;;;;;;;-144.99;100.00;52545.94;5079227;28;19928;-64
2023/11/07 01:06:57;;;;;;;;;;;;;;;-144.99;100.00;52586.69;5078179;28;19932;-62
2023/11/07 01:09:23;;;;;;;;;;;;;;;-144.99;100.00;52558.16;5078847;28;19956;-62
2023/11/07 01:11:50;;;;;;;;;;;;;;;-144.99;100.00;52541.84;5080755;28;20042;-62
2023/11/07 01:14:17;;;;;;;;;;;;;;;-144.99;100.00;52545.94;5088990;28;19981;-63
2023/11/07 01:16:43;;;;;;;;;;;;;;;-144.99;100.00;52564.28;5078904;28;19931;-63
2023/11/07 01:19:10;;;;;;;;;;;;;;;-144.99;100.00;52515.34;5082915;28;20027;-64
2023/11/07 01:21:37;;;;;;;;;;;;;;;-144.99;100.00;52570.38;5065162;28;19931;-65
2023/11/07 01:24:06;;;;;;;;;;;;;;;-144.99;100.00;52541.84;5081716;28;19970;-65
2023/11/07 01:26:32;;;;;;;;;;;;;;;-144.99;100.00;52537.78;5078732;28;19928;-64
2023/11/07 01:28:59;;;;;;;;;;;;;;;-144.99;100.00;52572.44;5080285;28;20448;-64
2023/11/07 01:31:25;;;;;;;;;;;;;;;-144.99;100.00;52562.25;5084664;28;19963;-64
2023/11/07 01:33:52;;;;;;;;;;;;;;;-144.99;100.00;52550.00;5085843;28;20008;-65
2023/11/07 01:36:18;;;;;;;;;;;;;;;-144.99;100.00;52550.00;5085274;28;19968;-64
2023/11/07 01:38:44;;;;;;;;;;;;;;;-144.99;100.00;52590.78;5086458;28;19955;-64
2023/11/07 01:41:12;;;;;;;;;;;;;;;-144.99;100.00;52554.09;5086141;28;20355;-65
2023/11/07 01:43:39;;;;;;;;;;;;;;;-144.99;100.00;52531.66;5084705;28;20028;-64
2023/11/07 01:46:06;;;;;;;;;;;;;;;-144.99;100.00;52537.78;5086236;28;19935;-65
2023/11/07 01:48:33;;;;;;;;;;;;;;;-144.99;100.00;52566.31;5083748;28;20473;-68
2023/11/07 01:50:59;;;;;;;;;;;;;;;-144.99;100.00;52558.16;5088642;28;20019;-67
2023/11/07 01:53:26;;;;;;;;;;;;;;;-144.99;100.00;52554.09;5094250;28;19927;-68
2023/11/07 01:55:53;;;;;;;;;;;;;;;-144.99;100.00;52578.53;5092967;28;20020;-69
2023/11/07 01:58:21;;;;;;;;;;;;;;;-144.99;100.00;52527.59;5089978;28;19924;-69
2023/11/07 02:00:48;;;;;;;;;;;;;;;-144.99;100.00;52537.78;5086004;28;19934;-70
2023/11/07 02:03:15;;;;;;;;;;;;;;;-144.99;100.00;52550.00;5086866;28;19977;-68
2023/11/07 02:05:41;;;;;;;;;;;;;;;-144.99;100.00;52545.94;5085209;28;19989;-68
2023/11/07 02:08:09;;;;;;;;;;;;;;;-144.99;100.00;52541.84;5086527;28;20026;-68
2023/11/07 02:10:37;;;;;;;;;;;;;;;-144.99;100.00;52550.00;5086102;28;19963;-68
2023/11/07 02:13:03;;;;;;;;;;;;;;;-144.99;100.00;52533.69;5084947;28;19924;-68
2023/11/07 02:15:32;;;;;;;;;;;;;;;-144.99;100.00;52537.78;5086551;28;19975;-69
2023/11/07 02:17:59;;;;;;;;;;;;;;;-144.99;100.00;52525.56;5085374;28;20089;-68
2023/11/07 02:20:26;;;;;;;;;;;;;;;-144.99;100.00;52529.63;5086248;28;19932;-69
2023/11/07 02:22:54;;;;;;;;;;;;;;;-144.99;100.00;52537.78;5084529;28;20058;-63
2023/11/07 02:25:22;;;;;;;;;;;;;;;-144.99;100.00;52541.84;5083545;28;20031;-61
2023/11/07 02:27:48;;;;;;;;;;;;;;;-144.99;100.00;52529.63;5084479;28;20017;-62
2023/11/07 02:30:15;;;;;;;;;;;;;;;-144.99;100.00;52586.69;5084577;28;20369;-62
2023/11/07 02:32:42;;;;;;;;;;;;;;;-144.99;100.00;52554.09;5074087;28;20020;-63
2023/11/07 02:35:08;;;;;;;;;;;;;;;-144.99;100.00;52537.78;5094722;28;20321;-64
2023/11/07 02:37:37;;;;;;;;;;;;;;;-144.99;100.00;52537.78;5094427;28;19924;-65
2023/11/07 02:40:04;;;;;;;;;;;;;;;-144.99;100.00;52511.28;5096171;28;19987;-64
2023/11/07 02:42:33;;;;;;;;;;;;;;;-144.99;100.00;52509.25;5092793;28;19951;-63
2023/11/07 02:44:59;;;;;;;;;;;;;;;-144.99;100.00;52558.16;5090484;28;19928;-65
2023/11/07 02:47:26;;;;;;;;;;;;;;;-144.99;100.00;52554.09;5093630;28;20377;-65
2023/11/07 02:49:52;;;;;;;;;;;;;;;-144.99;100.00;52566.31;5086118;28;19928;-65
2023/11/07 02:52:20;;;;;;;;;;;;;;;-144.99;100.00;52550.00;5079784;28;20331;-65
2023/11/07 02:54:47;;;;;;;;;;;;;;;-144.99;100.00;52539.81;5082971;28;19981;-64
2023/11/07 02:57:13;;;;;;;;;;;;;;;-144.99;100.00;52513.31;5087151;28;20019;-64
2023/11/07 02:59:41;;;;;;;;;;;;;;;-144.99;100.00;52574.47;5077224;28;19928;-66
2023/11/07 03:02:08;;;;;;;;;;;;;;;-144.99;100.00;52590.78;5088835;28;20343;-65
2023/11/07 03:04:34;;;;;;;;;;;;;;;-144.99;100.00;52550.00;5088918;28;19967;-64
2023/11/07 03:07:01;;;;;;;;;;;;;;;-144.99;100.00;52541.84;5081080;28;19928;-63
2023/11/07 03:09:27;;;;;;;;;;;;;;;-144.99;100.00;52545.94;5082342;28;19934;-64
2023/11/07 03:11:54;;;;;;;;;;;;;;;-144.99;100.00;52547.97;5081510;28;19959;-65
2023/11/07 03:14:20;;;;;;;;;;;;;;;-144.99;100.00;52550.00;5081697;28;20452;-65
2023/11/07 03:16:48;;;;;;;;;;;;;;;-144.99;100.00;52562.25;5081109;28;20317;-65
2023/11/07 03:19:15;;;;;;;;;;;;;;;-144.99;100.00;52554.09;5081304;28;19940;-65
2023/11/07 03:21:41;;;;;;;;;;;;;;;-144.99;100.00;52545.94;5081837;28;20512;-65
2023/11/07 03:24:08;;;;;;;;;;;;;;;-144.99;100.00;52533.69;5083572;28;20418;-64
2023/11/07 03:26:35;;;;;;;;;;;;;;;-144.99;100.00;52560.19;5080744;28;20678;-66
2023/11/07 03:29:01;;;;;;;;;;;;;;;-144.99;100.00;52564.28;5080901;28;21130;-66
2023/11/07 03:31:28;;;;;;;;;;;;;;;-144.99;100.00;52590.78;5080973;28;19951;-59
2023/11/07 03:33:55;;;;;;;;;;;;;;;-144.99;100.00;52529.63;5080730;28;20009;-59
2023/11/07 03:36:22;;;;;;;;;;;;;;;-144.99;100.00;52590.78;5084041;28;20354;-60
2023/11/07 03:38:48;;;;;;;;;;;;;;;-144.99;100.00;52570.38;5091177;28;19928;-59
2023/11/07 03:41:15;;;;;;;;;;;;;;;-144.99;100.00;52513.31;5097733;28;19993;-59
2023/11/07 03:43:41;;;;;;;;;;;;;;;-144.99;100.00;52572.44;5094277;28;20022;-59
2023/11/07 03:46:08;;;;;;;;;;;;;;;-144.99;100.00;52537.78;5084072;28;19990;-59
2023/11/07 03:48:34;;;;;;;;;;;;;;;-144.99;100.00;52545.94;5095609;28;20452;-60
2023/11/07 03:51:02;;;;;;;;;;;;;;;-144.99;100.00;52545.94;5089951;28;19971;-59
2023/11/07 03:53:28;;;;;;;;;;;;;;;-144.99;100.00;52605.03;5096442;28;19984;-59
2023/11/07 03:55:57;;;;;;;;;;;;;;;-144.99;100.00;52562.25;5085279;28;20038;-59
2023/11/07 03:58:24;;;;;;;;;;;;;;;-144.99;100.00;52578.53;5098350;28;19927;-59
2023/11/07 04:00:50;;;;;;;;;;;;;;;-144.99;100.00;52590.78;5093035;28;19979;-66
2023/11/07 04:03:16;;;;;;;;;;;;;;;-144.99;100.00;52543.91;5089392;28;19989;-67
2023/11/07 04:05:43;;;;;;;;;;;;;;;-144.99;100.00;52547.97;5081636;28;19974;-66
2023/11/07 04:08:11;;;;;;;;;;;;;;;-144.99;100.00;52558.16;5085779;28;19982;-68
2023/11/07 04:10:37;;;;;;;;;;;;;;;-144.99;100.00;52537.78;5094598;28;19924;-68
2023/11/07 04:13:05;;;;;;;;;;;;;;;-144.99;100.00;52594.84;5088715;28;20002;-69
2023/11/07 04:15:31;;;;;;;;;;;;;;;-144.99;100.00;52525.56;5091830;28;19924;-68
2023/11/07 04:17:58;;;;;;;;;;;;;;;-144.99;100.00;52578.53;5084970;28;19928;-62
2023/11/07 04:20:24;;;;;;;;;;;;;;;-144.99;100.00;52531.66;5086847;28;20023;-62
2023/11/07 04:22:51;;;;;;;;;;;;;;;-144.99;100.00;52550.00;5094016;28;20020;-62
2023/11/07 04:25:19;;;;;;;;;;;;;;;-144.99;100.00;52529.63;5099276;28;19928;-62
2023/11/07 04:27:46;;;;;;;;;;;;;;;-144.99;100.00;52525.56;5087881;28;19968;-62
2023/11/07 04:30:13;;;;;;;;;;;;;;;-144.99;100.00;52570.38;5087439;28;20056;-61
2023/11/07 04:32:40;;;;;;;;;;;;;;;-144.99;100.00;52545.94;5081135;28;19934;-62
2023/11/07 04:35:09;;;;;;;;;;;;;;;-144.99;100.00;52550.00;5082747;28;20002;-62
2023/11/07 04:37:37;;;;;;;;;;;;;;;-144.99;100.00;52533.69;5081013;28;20114;-61
2023/11/07 04:40:05;;;;;;;;;;;;;;;-144.99;100.00;52545.94;5080126;28;20035;-61
2023/11/07 04:42:34;;;;;;;;;;;;;;;-144.99;100.00;52521.47;5079633;28;19973;-61
2023/11/07 04:45:01;;;;;;;;;;;;;;;-144.99;100.00;52582.63;5079608;28;20397;-61
2023/11/07 04:47:27;;;;;;;;;;;;;;;-144.99;100.00;52537.78;5079691;28;19960;-63
2023/11/07 04:49:58;;;;;;;;;;;;;;;-144.99;100.00;52578.53;5078467;28;19935;-63
2023/11/07 04:52:24;;;;;;;;;;;;;;;-144.99;100.00;52525.56;5082523;28;20333;-62
2023/11/07 04:54:51;;;;;;;;;;;;;;;-144.99;100.00;52497.00;5082856;28;20451;-63
2023/11/07 04:57:17;;;;;;;;;;;;;;;-144.99;100.00;52527.59;5080980;28;19967;-62
2023/11/07 04:59:45;;;;;;;;;;;;;;;-144.99;100.00;52570.38;5079584;28;19932;-63
2023/11/07 05:02:12;;;;;;;;;;;;;;;-144.99;100.00;52558.16;5073297;28;20191;-61
2023/11/07 05:04:38;;;;;;;;;;;;;;;-144.99;100.00;52550.00;5075099;28;20055;-60
2023/11/07 05:07:05;;;;;;;;;;;;;;;-144.99;100.00;52521.47;5077414;28;20003;-61
2023/11/07 05:09:31;;;;;;;;;;;;;;;-144.99;100.00;52497.00;5073840;28;20692;-61
2023/11/07 05:11:59;;;;;;;;;;;;;;;-144.99;100.00;52533.69;5076793;28;20007;-62
2023/11/07 05:14:27;;;;;;;;;;;;;;;-144.99;100.00;52501.09;5074516;28;19924;-61
2023/11/07 05:16:55;;;;;;;;;;;;;;;-144.99;100.00;52497.00;5075238;28;19947;-62
2023/11/07 05:19:22;;;;;;;;;;;;;;;-144.99;100.00;52525.56;5074442;28;19928;-60
2023/11/07 05:21:48;;;;;;;;;;;;;;;-144.99;100.00;52576.50;5074127;28;20001;-60
2023/11/07 05:24:15;;;;;;;;;;;;;;;-144.99;100.00;52570.38;5074479;28;20028;-60
2023/11/07 05:26:43;;;;;;;;;;;;;;;-144.99;100.00;52570.38;5075356;28;19932;-70
2023/11/07 05:29:09;;;;;;;;;;;;;;;-144.99;100.00;52545.94;5075587;28;20689;-66
2023/11/07 05:31:36;;;;;;;;;;;;;;;-144.99;100.00;52566.31;5077213;28;19981;-66
2023/11/07 05:34:04;;;;;;;;;;;;;;;-144.99;100.00;52529.63;5075218;28;20022;-66
2023/11/07 05:36:30;;;;;;;;;;;;;;;-144.99;100.00;52541.84;5080044;28;19967;-66
2023/11/07 05:38:56;;;;;;;;;;;;;;;-144.99;100.00;52533.69;5087196;28;20390;-66
2023/11/07 05:41:25;;;;;;;;;;;;;;;-144.99;100.00;52537.78;5093603;28;19959;-67
2023/11/07 05:43:52;;;;;;;;;;;;;;;-144.99;100.00;52521.47;5078871;28;19939;-67
2023/11/07 05:46:18;;;;;;;;;;;;;;;-144.99;100.00;52533.69;5089612;28;19931;-67
2023/11/07 05:48:45;;;;;;;;;;;;;;;-144.99;100.00;52574.47;5081445;28;19928;-67
2023/11/07 05:51:13;;;;;;;;;;;;;;;-144.99;100.00;52541.84;5085682;28;20562;-67
2023/11/07 05:53:39;;;;;;;;;;;;;;;-144.99;100.00;52517.41;5095385;28;20018;-67
2023/11/07 05:56:06;;;;;;;;;;;;;;;-144.99;100.00;52572.44;5064874;28;20026;-66
2023/11/07 05:58:32;;;;;;;;;;;;;;;-144.99;100.00;52562.25;5086396;28;19976;-66
2023/11/07 06:00:59;;;;;;;;;;;;;;;-144.99;100.00;52550.00;5092114;28;20356;-68
2023/11/07 06:03:26;;;;;;;;;;;;;;;-144.99;100.00;52550.00;5088292;28;20366;-66
2023/11/07 06:05:52;;;;;;;;;;;;;;;-144.99;100.00;52564.28;5088175;28;19924;-66
2023/11/07 06:08:21;;;;;;;;;;;;;;;-144.99;100.00;52545.94;5086637;28;19974;-66
2023/11/07 06:10:47;;;;;;;;;;;;;;;-144.99;100.00;52554.09;5078300;28;21446;-68
2023/11/07 06:13:15;;;;;;;;;;;;;;;-144.99;100.00;52533.69;5077221;28;19924;-71
2023/11/07 06:15:42;;;;;;;;;;;;;;;-144.99;100.00;52529.63;5075452;28;19943;-70
2023/11/07 06:18:08;;;;;;;;;;;;;;;-144.99;100.00;52562.25;5080726;28;19931;-70
2023/11/07 06:20:34;;;;;;;;;;;;;;;-144.99;100.00;52550.00;5084913;28;20193;-70
2023/11/07 06:23:01;;;;;;;;;;;;;;;-144.99;100.00;52529.63;5077651;28;20448;-70
2023/11/07 06:25:29;;;;;;;;;;;;;;;-144.99;100.00;52564.28;5077120;28;19924;-70
2023/11/07 06:27:56;;;;;;;;;;;;;;;-144.99;100.00;52562.25;5079233;28;19997;-73
2023/11/07 06:30:23;;;;;;;;;;;;;;;-144.99;100.00;52560.19;4382741;28;10000868;-74
2023/11/07 06:32:50;;;;;;;;;;;;;;;-144.99;100.00;52529.63;5089163;28;19928;-76
2023/11/07 06:35:17;;;;;;;;;;;;;;;-144.99;100.00;52519.44;5078903;28;19963;-74
2023/11/07 06:37:43;;;;;;;;;;;;;;;-144.99;100.00;52539.81;5088038;28;19971;-76
2023/11/07 06:40:13;;;;;;;;;;;;;;;-144.99;100.00;52533.69;5087063;28;20021;-75
2023/11/07 06:42:41;;;;;;;;;;;;;;;-144.99;100.00;52550.00;5085278;28;19927;-74
2023/11/07 06:45:11;;;;;;;;;;;;;;;-144.99;100.00;52525.56;5081656;28;20011;-76
2023/11/07 06:47:39;;;;;;;;;;;;;;;-144.99;100.00;52562.25;5083582;28;19964;-75
2023/11/07 06:50:07;;;;;;;;;;;;;;;-144.99;100.00;52525.56;5083013;28;19935;-73
2023/11/07 06:52:34;;;;;;;;;;;;;;;-144.99;100.00;52507.19;5085756;28;20355;-74
2023/11/07 06:55:00;;;;;;;;;;;;;;;-144.99;100.00;52533.69;5084119;28;19932;-75
2023/11/07 06:57:27;;;;;;;;;;;;;;;-144.99;100.00;52521.47;5085403;28;20001;-74
2023/11/07 06:59:55;;;;;;;;;;;;;;;-144.99;100.00;52521.47;5091322;28;20346;-74
2023/11/07 07:02:21;;;;;;;;;;;;;;;-144.99;100.00;52531.66;5088279;28;20433;-74
2023/11/07 07:04:48;;;;;;;;;;;;;;;-144.99;100.00;52558.16;5076776;28;19929;-75
2023/11/07 07:07:16;;;;;;;;;;;;;;;-144.99;100.00;52537.78;5076181;28;19928;-74
2023/11/07 07:09:42;;;;;;;;;;;;;;;-144.99;100.00;52560.19;5085160;28;20305;-77
2023/11/07 07:12:09;;;;;;;;;;;;;;;-144.99;100.00;52529.63;5079022;28;20006;-73
2023/11/07 07:14:35;;;;;;;;;;;;;;;-144.99;100.00;52521.47;5077522;28;20025;-74
2023/11/07 07:17:03;;;;;;;;;;;;;;;-144.99;100.00;52529.63;5081831;28;20487;-73
2023/11/07 07:19:31;;;;;;;;;;;;;;;-144.99;100.00;52566.31;5081220;28;19981;-74
2023/11/07 07:21:57;;;;;;;;;;;;;;;-144.99;100.00;52529.63;5090640;28;19928;-74
2023/11/07 07:24:27;;;;;;;;;;;;;;;-144.99;100.00;52529.63;5089875;28;19971;-73
2023/11/07 07:26:55;;;;;;;;;;;;;;;-144.99;100.00;52525.56;5086941;28;19928;-74
2023/11/07 07:29:21;;;;;;;;;;;;;;;-144.99;100.00;52527.59;5086103;28;19931;-75
2023/11/07 07:31:48;;;;;;;;;;;;;;;-144.99;100.00;52517.41;5084213;28;19971;-74
2023/11/07 07:34:16;;;;;;;;;;;;;;;-144.99;100.00;52529.63;5089669;28;20409;-77
2023/11/07 07:36:47;;;;;;;;;;;;;;;-144.99;100.00;52550.00;5087923;28;19935;-74
2023/11/07 07:39:27;;;;;;;;;;;;;;;-144.99;100.00;52574.47;5086818;28;19985;-74
2023/11/07 07:41:56;;;;;;;;;;;;;;;-144.99;100.00;52529.63;4731539;28;10000407;-73
2023/11/07 07:44:24;;;;;;;;;;;;;;;-144.99;100.00;52492.94;5085666;28;19928;-75
2023/11/07 07:46:51;;;;;;;;;;;;;;;-144.99;100.00;52541.84;5091366;28;19923;-73
2023/11/07 07:49:23;;;;;;;;;;;;;;;-144.99;100.00;52523.50;5087928;28;20433;-76
2023/11/07 07:51:51;;;;;;;;;;;;;;;-144.99;100.00;52533.69;5081947;28;19928;-74
2023/11/07 07:54:22;;;;;;;;;;;;;;;-144.99;100.00;52547.97;5088859;28;19928;-75
2023/11/07 07:56:49;;;;;;;;;;;;;;;-144.99;100.00;52541.84;5095482;28;19943;-73
2023/11/07 07:59:15;;;;;;;;;;;;;;;-144.99;100.00;52554.09;5085921;28;19924;-78
2023/11/07 08:01:42;;;;;;;;;;;;;;;-144.99;100.00;52545.94;5084087;28;20408;-73
2023/11/07 08:04:08;;;;;;;;;;;;;;;-144.99;100.00;52529.63;5085649;28;19935;-74
2023/11/07 08:06:36;;;;;;;;;;;;;;;-144.99;100.00;52517.41;5086494;28;20436;-75
2023/11/07 08:09:03;;;;;;;;;;;;;;;-144.99;100.00;52521.47;5085671;28;20337;-75
2023/11/07 08:11:30;;;;;;;;;;;;;;;-144.99;100.00;52527.59;5090209;28;20364;-75
2023/11/07 08:13:57;;;;;;;;;;;;;;;-144.99;100.00;52527.59;5084191;28;20264;-75
2023/11/07 08:16:23;;;;;;;;;;;;;;;-144.99;100.00;52562.25;5085712;28;19928;-74
2023/11/07 08:18:50;;;;;;;;;;;;;;;-144.99;100.00;52525.56;5084325;28;19928;-76
2023/11/07 08:21:18;;;;;;;;;;;;;;;-144.99;100.00;52521.47;5103151;28;19928;-76
2023/11/07 08:23:46;;;;;;;;;;;;;;;-144.99;100.00;52515.34;5104365;28;19924;-77
2023/11/07 08:26:13;;;;;;;;;;;;;;;-144.99;100.00;52533.69;5102732;28;20273;-76
2023/11/07 08:28:43;;;;;;;;;;;;;;;-144.99;100.00;52505.16;5105731;28;19939;-77
2023/11/07 08:31:11;;;;;;;;;;;;;;;-144.99;100.00;52533.69;5106057;28;19924;-76
2023/11/07 08:33:38;;;;;;;;;;;;;;;-144.99;100.00;52492.94;5097828;28;19928;-78
2023/11/07 08:36:05;;;;;;;;;;;;;;;-144.99;100.00;52509.25;5102477;28;19924;-74
2023/11/07 08:38:32;;;;;;;;;;;;;;;-144.99;100.00;52521.47;5081484;28;19927;-73
2023/11/07 08:41:00;;;;;;;;;;;;;;;-144.99;100.00;52529.63;5102461;28;19928;-75
2023/11/07 08:43:26;;;;;;;;;;;;;;;-144.99;100.00;52521.47;5101199;28;19932;-76
2023/11/07 08:45:53;;;;;;;;;;;;;;;-144.99;100.00;52505.16;5102906;28;19954;-77
2023/11/07 08:48:20;;;;;;;;;;;;;;;-144.99;100.00;52533.69;5102163;28;19939;-78
2023/11/07 08:50:46;;;;;;;;;;;;;;;-144.99;100.00;52488.84;5093725;28;19924;-75
2023/11/07 08:53:13;;;;;;;;;;;;;;;-144.99;100.00;52554.09;5099530;28;20045;-75
2023/11/07 08:55:40;;;;;;;;;;;;;;;-144.99;100.00;52529.63;5097369;28;19924;-76
2023/11/07 08:58:08;;;;;;;;;;;;;;;-144.99;100.00;52488.84;5094666;28;19928;-77
2023/11/07 09:00:35;;;;;;;;;;;;;;;-144.99;100.00;52550.00;5096206;28;19928;-75
2023/11/07 09:03:02;;;;;;;;;;;;;;;-144.99;100.00;52547.97;5095756;28;19985;-75
2023/11/07 09:05:29;;;;;;;;;;;;;;;-144.99;100.00;52519.44;5088709;28;19928;-74
2023/11/07 09:07:55;;;;;;;;;;;;;;;-144.99;100.00;52545.94;5091518;28;19969;-75
2023/11/07 09:10:22;;;;;;;;;;;;;;;-144.99;100.00;52521.47;5090530;28;19932;-74
2023/11/07 09:12:48;;;;;;;;;;;;;;;-144.99;100.00;52509.25;5086983;28;21309;-75
2023/11/07 09:15:19;;;;;;;;;;;;;;;-144.99;100.00;52554.09;5082033;28;19959;-73
2023/11/07 09:17:46;;;;;;;;;;;;;;;-144.99;100.00;52537.78;5086633;28;20417;-74
2023/11/07 09:20:13;;;;;;;;;;;;;;;-144.99;100.00;52541.84;5087952;28;19959;-74
2023/11/07 09:22:41;;;;;;;;;;;;;;;-144.99;100.00;52541.84;5086906;28;19934;-75
2023/11/07 09:25:08;;;;;;;;;;;;;;;-144.99;100.00;52554.09;5095945;28;19928;-73
2023/11/07 09:27:34;;;;;;;;;;;;;;;-144.99;100.00;52543.91;5077703;28;20384;-74
2023/11/07 09:30:00;;;;;;;;;;;;;;;-144.99;100.00;52529.63;5087411;28;19981;-74
2023/11/07 09:32:29;;;;;;;;;;;;;;;-144.99;100.00;52505.16;5085405;28;20405;-75
2023/11/07 09:34:57;;;;;;;;;;;;;;;-144.99;100.00;52509.25;5077478;28;20070;-75
2023/11/07 09:37:23;;;;;;;;;;;;;;;-144.99;100.00;52531.66;5079937;28;19932;-76
2023/11/07 09:39:50;;;;;;;;;;;;;;;-144.99;100.00;52488.84;5087600;28;19971;-78
2023/11/07 09:42:17;;;;;;;;;;;;;;;-144.99;100.00;52517.41;5076738;28;19951;-76
2023/11/07 09:44:43;;;;;;;;;;;;;;;-144.99;100.00;52529.63;5090219;28;20414;-74
2023/11/07 09:47:11;;;;;;;;;;;;;;;-144.99;100.00;52537.78;5086620;28;19996;-79
2023/11/07 09:49:39;;;;;;;;;;;;;;;-144.99;100.00;52499.06;5079628;28;19935;-76
2023/11/07 09:52:06;;;;;;;;;;;;;;;-144.99;100.00;52513.31;5084003;28;19938;-74
2023/11/07 09:54:33;;;;;;;;;;;;;;;-144.99;100.00;52517.41;5090671;28;20201;-74
2023/11/07 09:57:02;;;;;;;;;;;;;;;-144.99;100.00;52554.09;5092487;28;20068;-76
2023/11/07 09:59:33;;;;;;;;;;;;;;;-144.99;100.00;52497.00;5081148;28;20019;-75
2023/11/07 10:02:00;;;;;;;;;;;;;;;-144.99;100.00;52531.66;5085598;28;20218;-77
2023/11/07 10:04:28;;;;;;;;;;;;;;;-144.99;100.00;52509.25;5080987;28;19999;-73
2023/11/07 10:06:58;;;;;;;;;;;;;;;-144.99;100.00;52492.94;5086962;28;20290;-75
2023/11/07 10:09:26;;;;;;;;;;;;;;;-144.99;100.00;52521.47;5088751;28;19972;-74
2023/11/07 10:11:53;;;;;;;;;;;;;;;-144.99;100.00;52466.44;5091498;28;19924;-76
2023/11/07 10:14:21;;;;;;;;;;;;;;;-144.99;100.00;52545.94;5090839;28;20262;-73
2023/11/07 10:16:50;;;;;;;;;;;;;;;-144.99;100.00;52486.81;5082466;28;19924;-76
2023/11/07 10:19:19;;;;;;;;;;;;;;;-144.99;100.00;52501.09;5076152;28;19968;-73
2023/11/07 10:21:46;;;;;;;;;;;;;;;-144.99;100.00;52541.84;5082774;28;19975;-74
2023/11/07 10:24:14;;;;;;;;;;;;;;;-144.99;100.00;52497.00;5085744;28;19928;-75
2023/11/07 10:26:50;;;;;;;;;;;;;;;-144.99;100.00;52509.25;5088581;28;20290;-79
2023/11/07 10:29:25;;;;;;;;;;;;;;;-144.99;100.00;52484.78;5085517;28;20355;-75
2023/11/07 10:31:58;;;;;;;;;;;;;;;-144.99;100.00;52497.00;5080260;28;20460;-75
2023/11/07 10:34:25;;;;;;;;;;;;;;;-144.99;100.00;52494.97;5084952;28;19975;-78
2023/11/07 10:36:52;;;;;;;;;;;;;;;-144.99;100.00;52484.78;5089199;28;19924;-74
2023/11/07 10:39:23;;;;;;;;;;;;;;;-144.99;100.00;52464.41;5075424;28;19947;-79
2023/11/07 10:41:49;;;;;;;;;;;;;;;-144.99;100.00;52494.97;5080701;28;19991;-77
2023/11/07 10:44:16;;;;;;;;;;;;;;;-144.99;100.00;52470.50;5088439;28;20388;-75
2023/11/07 10:46:43;;;;;;;;;;;;;;;-144.99;100.00;52505.16;5082768;28;20200;-77
2023/11/07 10:49:11;;;;;;;;;;;;;;;-144.99;100.00;52492.94;5085843;28;19928;-74
2023/11/07 10:51:38;;;;;;;;;;;;;;;-144.99;100.00;52521.47;5087575;28;20348;-74
2023/11/07 10:54:06;;;;;;;;;;;;;;;-144.99;100.00;52468.47;5089953;28;20293;-75
2023/11/07 10:56:36;;;;;;;;;;;;;;;-144.99;100.00;52484.78;5086156;28;20202;-75
2023/11/07 10:59:03;;;;;;;;;;;;;;;-144.99;100.00;52419.56;5087547;28;20328;-75
2023/11/07 11:01:32;;;;;;;;;;;;;;;-144.99;100.00;52547.97;5089147;28;19924;-74
2023/11/07 11:04:00;;;;;;;;;;;;;;;-144.99;100.00;52492.94;5093011;28;19963;-76
2023/11/07 11:06:29;;;;;;;;;;;;;;;-144.99;100.00;52537.78;5079869;28;19978;-75
2023/11/07 11:08:57;;;;;;;;;;;;;;;-144.99;100.00;52519.44;5089988;28;19928;-77
2023/11/07 11:11:24;;;;;;;;;;;;;;;-144.99;100.00;52566.31;5090829;28;19966;-75
2023/11/07 11:13:52;;;;;;;;;;;;;;;-144.99;100.00;52558.16;5083061;28;19973;-77
2023/11/07 11:16:20;;;;;;;;;;;;;;;-144.99;100.00;52558.16;5086638;28;19930;-76
2023/11/07 11:18:52;;;;;;;;;;;;;;;-144.99;100.00;52484.78;5091328;28;19931;-74
2023/11/07 11:21:23;;;;;;;;;;;;;;;-144.99;100.00;52517.41;5085638;28;19962;-75
2023/11/07 11:23:56;;;;;;;;;;;;;;;-144.99;100.00;52509.25;5088984;28;20370;-77
2023/11/07 11:26:26;;;;;;;;;;;;;;;-144.99;100.00;52537.78;5070724;28;19977;-75
2023/11/07 11:28:54;;;;;;;;;;;;;;;-144.99;100.00;52472.56;5087853;28;19931;-74
2023/11/07 11:31:22;;;;;;;;;;;;;;;-144.99;100.00;52525.56;5089769;28;20471;-74
2023/11/07 11:33:51;;;;;;;;;;;;;;;-144.99;100.00;52541.84;5092056;28;19971;-74
2023/11/07 11:36:32;;;;;;;;;;;;;;;-144.99;100.00;52488.84;5089305;28;20515;-76
2023/11/07 11:38:59;;;;;;;;;;;;;;;-144.99;100.00;52501.09;5085683;28;20393;-77
2023/11/07 11:41:41;;;;;;;;;;;;;;;-144.99;100.00;52386.94;5086650;28;19924;-76
2023/11/07 11:44:15;;;;;;;;;;;;;;;-144.99;100.00;52415.47;5088769;28;20074;-76
2023/11/07 11:46:42;;;;;;;;;;;;;;;-144.99;97.55;52435.88;5092644;28;19942;-74
2023/11/07 11:49:11;;;;;;;;;;;;;;;-144.99;93.60;52336.00;5100293;28;19986;-76
2023/11/07 11:51:38;;;;;;;;;;;;;;;-144.99;91.21;52321.72;5079193;28;19932;-76
2023/11/07 11:54:06;;;;;;;;;;;;;;;-144.99;86.68;52303.38;5092676;28;20621;-74
2023/11/07 11:56:34;;;;;;;;;;;;;;;-144.99;83.91;52297.25;5092386;28;20427;-76
2023/11/07 11:59:07;;;;;;;;;;;;;;;-144.99;79.17;52407.31;5084737;28;19928;-77
2023/11/07 12:01:49;;;;;;;;;;;;;;;-144.99;78.93;52280.97;5096330;28;20002;-78
2023/11/07 12:04:29;;;;;;;;;;;;;;;-144.99;80.76;52427.72;5084382;28;20027;-75
2023/11/07 12:07:20;;;;;;;;;;;;;;;-144.99;83.71;52472.56;5082014;28;19928;-76
2023/11/07 12:09:50;;;;;;;;;;;;;;;-144.99;86.04;52501.09;5067588;28;19932;-76
2023/11/07 12:12:17;;;;;;;;;;;;;;;-144.99;85.74;52336.00;5080712;28;20329;-77
2023/11/07 12:14:48;;;;;;;;;;;;;;;-144.99;85.12;52444.03;5082551;28;19931;-75
2023/11/07 12:17:16;;;;;;;;;;;;;;;-144.99;85.96;52439.94;5084159;28;19955;-77
2023/11/07 12:19:44;;;;;;;;;;;;;;;-144.99;87.11;52480.72;5079737;28;19935;-77
2023/11/07 12:22:11;;;;;;;;;;;;;;;-144.99;88.14;52529.63;5080702;28;20416;-77